createdAt,value
2023-02-15T00:00:07.104Z,67.79
2023-02-15T00:02:41.593Z,67.99
2023-02-15T00:05:13.144Z,67.44
2023-02-15T00:07:47.853Z,67.72
2023-02-15T00:10:19.491Z,67.58
2023-02-15T00:12:53.366Z,67.69
2023-02-15T00:15:26.942Z,67.89
2023-02-15T00:17:58.501Z,67.91
2023-02-15T00:20:30.111Z,68.21
2023-02-15T00:23:01.679Z,68.25
2023-02-15T00:25:33.271Z,68.11
2023-02-15T00:28:06.705Z,68.25
2023-02-15T00:30:39.952Z,68.56
2023-02-15T00:33:11.512Z,68.49
2023-02-15T00:35:54.342Z,68.45
2023-02-15T00:38:28.359Z,68.35
2023-02-15T00:41:07.101Z,68.63
2023-02-15T00:43:41.581Z,68.86
2023-02-15T00:46:13.182Z,69.21
2023-02-15T00:48:44.735Z,68.58
2023-02-15T00:51:16.850Z,69.09
2023-02-15T00:53:50.305Z,69.04
2023-02-15T00:56:25.002Z,68.90
2023-02-15T00:58:56.936Z,68.40
2023-02-15T01:01:29.169Z,68.57
2023-02-15T01:04:00.939Z,68.77
2023-02-15T01:06:34.619Z,68.38
2023-02-15T01:09:06.519Z,68.80
2023-02-15T01:11:44.156Z,69.58
2023-02-15T01:14:15.806Z,69.87
2023-02-15T01:16:47.428Z,70.01
2023-02-15T01:19:21.690Z,69.83
2023-02-15T01:21:58.173Z,69.25
2023-02-15T01:24:33.680Z,69.77
2023-02-15T01:27:07.545Z,70.31
2023-02-15T01:29:48.421Z,70.07
2023-02-15T01:32:20.607Z,69.93
2023-02-15T01:34:54.701Z,69.89
2023-02-15T01:37:29.053Z,69.73
2023-02-15T01:40:01.129Z,69.92
2023-02-15T01:42:32.991Z,69.74
2023-02-15T01:45:15.531Z,69.92
2023-02-15T01:48:10.799Z,70.34
2023-02-15T01:50:43.991Z,70.10
2023-02-15T01:53:34.480Z,71.10
2023-02-15T01:56:16.362Z,71.27
2023-02-15T01:58:51.841Z,71.13
2023-02-15T02:01:23.634Z,71.04
2023-02-15T02:03:55.501Z,70.24
2023-02-15T02:06:27.418Z,70.51
2023-02-15T02:08:59.344Z,70.62
2023-02-15T02:11:35.813Z,70.88
2023-02-15T02:14:07.535Z,70.54
2023-02-15T02:16:58.878Z,70.44
2023-02-15T02:19:30.391Z,70.61
2023-02-15T02:22:15.377Z,71.08
2023-02-15T02:25:07.477Z,71.08
2023-02-15T02:27:50.488Z,70.83
2023-02-15T02:30:39.481Z,71.16
2023-02-15T02:33:18.212Z,71.42
2023-02-15T02:35:52.394Z,71.41
2023-02-15T02:38:23.904Z,71.21
2023-02-15T02:40:57.456Z,71.11
2023-02-15T02:43:34.655Z,71.04
2023-02-15T02:46:22.543Z,71.02
2023-02-15T02:48:54.717Z,71.11
2023-02-15T02:51:29.376Z,71.71
2023-02-15T02:54:08.992Z,71.53
2023-02-15T02:56:49.285Z,71.78
2023-02-15T02:59:46.592Z,70.86
2023-02-15T03:02:22.865Z,71.55
2023-02-15T03:05:04.263Z,71.66
2023-02-15T03:07:47.831Z,71.70
2023-02-15T03:10:21.800Z,72.21
2023-02-15T03:12:55.812Z,71.18
2023-02-15T03:15:55.308Z,71.74
2023-02-15T03:18:29.800Z,71.23
2023-02-15T03:21:02.491Z,71.66
2023-02-15T03:23:35.592Z,71.99
2023-02-15T03:26:12.191Z,71.44
2023-02-15T03:28:46.747Z,72.01
2023-02-15T03:31:19.419Z,71.46
2023-02-15T03:33:58.375Z,71.07
2023-02-15T03:36:44.022Z,70.67
2023-02-15T03:39:54.544Z,70.70
2023-02-15T03:42:30.350Z,70.42
2023-02-15T03:45:07.081Z,70.99
2023-02-15T03:47:42.748Z,71.38
2023-02-15T03:50:40.370Z,71.29
2023-02-15T03:53:14.803Z,70.65
2023-02-15T03:55:54.775Z,70.68
2023-02-15T03:58:48.186Z,71.19
2023-02-15T04:01:58.307Z,70.94
2023-02-15T04:04:40.034Z,71.79
2023-02-15T04:07:14.643Z,71.32
2023-02-15T04:10:05.000Z,72.28
2023-02-15T04:12:39.581Z,72.75
2023-02-15T04:15:31.912Z,72.27
2023-02-15T04:18:06.636Z,72.25
2023-02-15T04:20:56.995Z,72.69
2023-02-15T04:23:55.016Z,71.95
2023-02-15T04:26:29.574Z,72.61
2023-02-15T04:29:01.086Z,72.18
2023-02-15T04:31:37.086Z,72.17
2023-02-15T04:34:08.713Z,71.92
2023-02-15T04:36:40.586Z,72.39
2023-02-15T04:39:16.048Z,72.29
2023-02-15T04:41:49.151Z,72.12
2023-02-15T04:44:20.765Z,72.32
2023-02-15T04:46:52.273Z,72.16
2023-02-15T04:49:23.914Z,72.47
2023-02-15T04:51:55.429Z,71.89
2023-02-15T04:54:26.998Z,72.28
2023-02-15T04:56:58.486Z,71.89
2023-02-15T04:59:31.474Z,72.05
2023-02-15T05:02:03.066Z,72.09
2023-02-15T05:04:34.727Z,72.15
2023-02-15T05:07:06.288Z,72.61
2023-02-15T05:09:41.241Z,72.67
2023-02-15T05:12:12.766Z,72.53
2023-02-15T05:14:44.371Z,73.04
2023-02-15T05:17:16.079Z,73.16
2023-02-15T05:19:50.733Z,72.84
2023-02-15T05:22:22.270Z,72.76
2023-02-15T05:25:12.185Z,73.26
2023-02-15T05:28:04.418Z,73.05
2023-02-15T05:30:37.539Z,73.12
2023-02-15T05:33:15.702Z,73.40
2023-02-15T05:35:47.295Z,72.61
2023-02-15T05:38:18.822Z,72.91
2023-02-15T05:40:51.468Z,72.05
2023-02-15T05:43:23.292Z,72.68
2023-02-15T05:45:58.540Z,72.52
2023-02-15T05:48:30.546Z,72.30
2023-02-15T05:51:09.291Z,72.42
2023-02-15T05:53:49.820Z,72.74
2023-02-15T05:56:21.404Z,72.62
2023-02-15T05:58:54.070Z,72.16
2023-02-15T06:01:26.252Z,72.89
2023-02-15T06:03:57.879Z,72.98
2023-02-15T06:06:29.463Z,73.14
2023-02-15T06:09:01.135Z,72.92
2023-02-15T06:11:32.662Z,72.94
2023-02-15T06:14:07.135Z,72.85
2023-02-15T06:16:38.878Z,73.51
2023-02-15T06:19:12.691Z,73.06
2023-02-15T06:21:44.276Z,73.46
2023-02-15T06:24:15.904Z,73.89
2023-02-15T06:26:47.434Z,73.64
2023-02-15T06:29:19.002Z,73.85
2023-02-15T06:31:52.301Z,73.57
2023-02-15T06:34:23.865Z,74.26
2023-02-15T06:36:55.428Z,74.65
2023-02-15T06:39:29.514Z,74.82
2023-02-15T06:42:01.118Z,74.32
2023-02-15T06:44:32.627Z,74.37
2023-02-15T06:47:07.141Z,73.40
2023-02-15T06:49:38.737Z,73.65
2023-02-15T06:52:11.857Z,74.73
2023-02-15T06:54:47.917Z,74.13
2023-02-15T06:57:19.457Z,74.10
2023-02-15T06:59:51.138Z,74.06
2023-02-15T07:02:31.861Z,74.13
2023-02-15T07:05:06.544Z,74.89
2023-02-15T07:07:38.095Z,74.50
2023-02-15T07:10:09.747Z,75.10
2023-02-15T07:12:45.383Z,75.00
2023-02-15T07:15:18.325Z,74.26
2023-02-15T07:17:53.960Z,74.54
2023-02-15T07:20:25.555Z,73.49
2023-02-15T07:22:57.144Z,73.78
2023-02-15T07:25:28.685Z,73.98
2023-02-15T07:28:01.684Z,73.85
2023-02-15T07:30:34.871Z,73.48
2023-02-15T07:33:25.580Z,73.78
2023-02-15T07:36:02.172Z,73.98
2023-02-15T07:38:34.889Z,74.19
2023-02-15T07:41:29.282Z,74.56
2023-02-15T07:44:04.020Z,75.11
2023-02-15T07:46:35.574Z,75.56
2023-02-15T07:49:07.191Z,75.75
2023-02-15T07:51:38.873Z,75.52
2023-02-15T07:54:10.451Z,75.75
2023-02-15T07:56:42.086Z,74.79
2023-02-15T07:59:14.764Z,74.80
2023-02-15T08:01:46.406Z,74.28
2023-02-15T08:04:20.679Z,73.48
2023-02-15T08:06:55.727Z,74.05
2023-02-15T08:09:27.403Z,74.38
2023-02-15T08:11:58.913Z,74.66
2023-02-15T08:14:30.499Z,74.52
2023-02-15T08:17:06.072Z,74.31
2023-02-15T08:19:37.842Z,74.75
2023-02-15T08:22:13.476Z,74.59
2023-02-15T08:24:45.130Z,75.17
2023-02-15T08:27:16.786Z,75.19
2023-02-15T08:29:48.350Z,75.00
2023-02-15T08:32:20.052Z,75.39
2023-02-15T08:34:51.664Z,75.36
2023-02-15T08:37:23.230Z,75.38
2023-02-15T08:39:54.822Z,75.35
2023-02-15T08:42:26.390Z,76.00
2023-02-15T08:44:57.959Z,75.74
2023-02-15T08:47:29.530Z,75.50
2023-02-15T08:50:01.240Z,75.29
2023-02-15T08:52:33.787Z,75.36
2023-02-15T08:55:05.868Z,75.30
2023-02-15T08:57:38.102Z,75.14
2023-02-15T09:00:10.186Z,74.97
2023-02-15T09:02:41.867Z,74.45
2023-02-15T09:05:13.466Z,74.28
2023-02-15T09:07:45.029Z,74.19
2023-02-15T09:10:16.721Z,73.91
2023-02-15T09:12:48.283Z,74.49
2023-02-15T09:15:19.870Z,73.88
2023-02-15T09:17:51.359Z,74.07
2023-02-15T09:20:23.835Z,73.85
2023-02-15T09:22:57.657Z,74.31
2023-02-15T09:25:30.665Z,74.61
2023-02-15T09:28:02.173Z,74.19
2023-02-15T09:30:34.550Z,74.08
2023-02-15T09:33:06.144Z,74.54
2023-02-15T09:35:37.680Z,74.07
2023-02-15T09:38:10.791Z,73.98
2023-02-15T09:40:51.158Z,74.17
2023-02-15T09:43:34.451Z,73.83
2023-02-15T09:46:06.163Z,73.15
2023-02-15T09:48:37.767Z,72.99
2023-02-15T09:51:47.565Z,74.04
2023-02-15T09:54:21.869Z,73.93
2023-02-15T09:56:56.588Z,73.10
2023-02-15T09:59:28.168Z,71.52
2023-02-15T10:02:19.663Z,70.65
2023-02-15T10:05:12.800Z,70.35
2023-02-15T10:07:44.329Z,69.88
2023-02-15T10:10:16.163Z,69.77
2023-02-15T10:13:08.198Z,69.49
2023-02-15T10:15:40.615Z,70.11
2023-02-15T10:18:23.497Z,70.09
2023-02-15T10:20:54.960Z,70.08
2023-02-15T10:23:35.609Z,70.14
2023-02-15T10:26:17.636Z,69.90
2023-02-15T10:28:50.582Z,70.37
2023-02-15T10:31:22.307Z,69.92
2023-02-15T10:34:12.460Z,69.04
2023-02-15T10:37:11.631Z,68.33
2023-02-15T10:39:43.548Z,68.47
2023-02-15T10:42:33.765Z,68.55
2023-02-15T10:45:05.311Z,68.50
2023-02-15T10:47:50.826Z,68.38
2023-02-15T10:50:43.814Z,68.23
2023-02-15T10:53:28.401Z,68.87
2023-02-15T10:55:59.977Z,68.42
2023-02-15T10:58:50.520Z,68.77
2023-02-15T11:01:23.336Z,69.73
2023-02-15T11:04:00.788Z,70.09
2023-02-15T11:06:33.703Z,69.39
2023-02-15T11:09:10.076Z,69.64
2023-02-15T11:11:45.892Z,70.11
2023-02-15T11:14:29.723Z,68.65
2023-02-15T11:17:05.612Z,68.43
2023-02-15T11:19:41.192Z,68.50
2023-02-15T11:22:16.140Z,68.38
2023-02-15T11:24:49.489Z,68.64
2023-02-15T11:27:22.714Z,68.16
2023-02-15T11:29:54.387Z,68.77
2023-02-15T11:32:34.286Z,68.69
2023-02-15T11:35:05.840Z,68.61
2023-02-15T11:37:44.094Z,69.61
2023-02-15T11:40:27.678Z,70.03
2023-02-15T11:43:06.417Z,69.55
2023-02-15T11:45:39.467Z,69.30
2023-02-15T11:48:13.697Z,68.63
2023-02-15T11:50:45.563Z,68.74
2023-02-15T11:53:31.444Z,67.35
2023-02-15T11:56:05.053Z,66.98
2023-02-15T11:58:42.879Z,67.06
2023-02-15T12:01:17.824Z,67.42
2023-02-15T12:03:53.788Z,67.24
2023-02-15T12:06:27.253Z,66.89
2023-02-15T12:08:58.770Z,66.32
2023-02-15T12:11:33.688Z,66.46
2023-02-15T12:14:07.518Z,66.64
2023-02-15T12:16:48.137Z,66.84
2023-02-15T12:19:19.957Z,66.75
2023-02-15T12:21:53.882Z,66.44
2023-02-15T12:24:28.547Z,66.26
2023-02-15T12:27:05.021Z,66.30
2023-02-15T12:29:40.987Z,66.35
2023-02-15T12:32:17.669Z,66.77
2023-02-15T12:34:49.632Z,67.30
2023-02-15T12:37:24.301Z,66.85
2023-02-15T12:40:16.191Z,66.80
2023-02-15T12:42:47.752Z,66.62
2023-02-15T12:45:22.291Z,66.83
2023-02-15T12:48:12.363Z,66.91
2023-02-15T12:50:45.249Z,66.27
2023-02-15T12:53:24.021Z,66.51
2023-02-15T12:55:59.931Z,66.22
2023-02-15T12:58:32.613Z,66.57
2023-02-15T13:01:10.234Z,66.10
2023-02-15T13:04:02.254Z,65.90
2023-02-15T13:06:36.003Z,65.95
2023-02-15T13:09:13.616Z,66.55
2023-02-15T13:11:45.675Z,66.29
2023-02-15T13:14:22.904Z,66.56
2023-02-15T13:16:59.260Z,66.27
2023-02-15T13:19:36.656Z,65.70
2023-02-15T13:22:11.833Z,66.25
2023-02-15T13:24:51.434Z,65.75
2023-02-15T13:27:25.136Z,66.19
2023-02-15T13:29:59.517Z,65.93
2023-02-15T13:32:33.612Z,65.21
2023-02-15T13:35:08.184Z,65.75
2023-02-15T13:37:55.095Z,66.52
2023-02-15T13:40:34.916Z,66.24
2023-02-15T13:43:14.482Z,65.71
2023-02-15T13:45:46.003Z,65.20
2023-02-15T13:48:20.503Z,65.72
2023-02-15T13:50:58.092Z,65.06
2023-02-15T13:53:50.211Z,65.42
2023-02-15T13:56:30.589Z,65.58
2023-02-15T13:59:09.484Z,65.62
2023-02-15T14:01:45.662Z,65.45
2023-02-15T14:04:17.296Z,65.45
2023-02-15T14:07:07.384Z,66.08
2023-02-15T14:09:56.728Z,66.28
2023-02-15T14:12:52.683Z,66.22
2023-02-15T14:15:30.532Z,66.15
2023-02-15T14:18:11.617Z,65.69
2023-02-15T14:20:43.131Z,65.52
2023-02-15T14:23:14.622Z,65.58
2023-02-15T14:25:49.494Z,65.45
2023-02-15T14:28:29.028Z,65.78
2023-02-15T14:31:01.407Z,65.79
2023-02-15T14:33:43.905Z,65.81
2023-02-15T14:36:17.760Z,65.65
2023-02-15T14:39:35.917Z,65.94
2023-02-15T14:42:23.594Z,64.80
2023-02-15T14:45:15.433Z,64.92
2023-02-15T14:47:56.339Z,64.37
2023-02-15T14:50:31.077Z,63.79
2023-02-15T14:53:17.904Z,63.83
2023-02-15T14:56:05.668Z,63.90
2023-02-15T14:58:57.542Z,63.66
2023-02-15T15:01:30.650Z,62.99
2023-02-15T15:04:05.831Z,62.68
2023-02-15T15:06:39.074Z,62.53
2023-02-15T15:09:10.600Z,62.53
2023-02-15T15:11:44.894Z,62.75
2023-02-15T15:14:34.966Z,62.99
2023-02-15T15:17:07.535Z,62.53
2023-02-15T15:19:51.831Z,62.75
2023-02-15T15:22:25.370Z,63.05
2023-02-15T15:24:58.683Z,63.15
2023-02-15T15:27:39.211Z,63.38
2023-02-15T15:30:19.844Z,63.51
2023-02-15T15:33:21.443Z,63.81
2023-02-15T15:36:13.706Z,63.53
2023-02-15T15:39:00.438Z,63.39
2023-02-15T15:41:31.943Z,63.77
2023-02-15T15:44:13.466Z,63.54
2023-02-15T15:46:54.071Z,63.79
2023-02-15T15:49:29.225Z,64.25
2023-02-15T15:52:02.912Z,64.74
2023-02-15T15:54:34.533Z,64.10
2023-02-15T15:57:07.821Z,64.58
2023-02-15T15:59:44.338Z,64.55
2023-02-15T16:02:19.770Z,64.50
2023-02-15T16:04:51.329Z,64.73
2023-02-15T16:07:27.127Z,65.14
2023-02-15T16:10:01.770Z,65.31
2023-02-15T16:12:34.932Z,65.34
2023-02-15T16:15:17.447Z,65.05
2023-02-15T16:17:51.349Z,65.57
2023-02-15T16:20:30.356Z,65.71
2023-02-15T16:23:10.203Z,65.25
2023-02-15T16:25:51.234Z,66.08
2023-02-15T16:28:23.052Z,66.76
2023-02-15T16:31:13.922Z,66.40
2023-02-15T16:33:48.246Z,67.36
2023-02-15T16:36:26.755Z,68.44
2023-02-15T16:38:58.270Z,67.71
2023-02-15T16:41:30.297Z,67.77
2023-02-15T16:44:05.642Z,68.56
2023-02-15T16:46:40.929Z,68.84
2023-02-15T16:49:17.560Z,69.04
2023-02-15T16:51:57.407Z,69.28
2023-02-15T16:54:30.973Z,69.20
2023-02-15T16:57:02.810Z,68.75
2023-02-15T16:59:37.451Z,69.93
2023-02-15T17:02:37.267Z,70.57
2023-02-15T17:05:16.784Z,70.50
2023-02-15T17:07:51.165Z,70.59
2023-02-15T17:10:29.028Z,70.24
2023-02-15T17:13:04.789Z,70.65
2023-02-15T17:15:36.346Z,71.09
2023-02-15T17:18:24.644Z,70.86
2023-02-15T17:20:58.215Z,70.82
2023-02-15T17:23:32.167Z,71.56
2023-02-15T17:26:12.732Z,70.92
2023-02-15T17:28:48.972Z,70.60
2023-02-15T17:31:21.975Z,72.11
2023-02-15T17:33:55.959Z,71.68
2023-02-15T17:36:30.314Z,71.53
2023-02-15T17:39:06.590Z,71.83
2023-02-15T17:41:38.358Z,72.73
2023-02-15T17:44:14.840Z,71.75
2023-02-15T17:46:47.765Z,72.36
2023-02-15T17:49:23.639Z,72.18
2023-02-15T17:51:55.255Z,72.39
2023-02-15T17:54:45.202Z,72.29
2023-02-15T17:57:16.964Z,71.90
2023-02-15T18:00:07.389Z,72.24
2023-02-15T18:03:02.847Z,72.31
2023-02-15T18:05:53.091Z,72.10
2023-02-15T18:08:46.255Z,73.03
2023-02-15T18:11:38.330Z,72.61
2023-02-15T18:14:12.753Z,72.56
2023-02-15T18:16:45.714Z,72.84
2023-02-15T18:19:19.864Z,72.92
2023-02-15T18:21:52.905Z,72.64
2023-02-15T18:24:28.235Z,73.26
2023-02-15T18:26:59.879Z,73.23
2023-02-15T18:29:31.786Z,72.57
2023-02-15T18:32:07.296Z,72.89
2023-02-15T18:34:41.823Z,73.09
2023-02-15T18:37:18.329Z,72.33
2023-02-15T18:39:54.165Z,73.07
2023-02-15T18:42:27.992Z,72.74
2023-02-15T18:45:15.010Z,73.13
2023-02-15T18:47:47.001Z,72.59
2023-02-15T18:50:19.773Z,72.90
2023-02-15T18:52:51.685Z,72.89
2023-02-15T18:55:25.006Z,72.80
2023-02-15T18:57:57.197Z,73.55
2023-02-15T19:00:33.474Z,73.14
2023-02-15T19:03:07.625Z,73.39
2023-02-15T19:05:41.453Z,73.17
2023-02-15T19:08:16.938Z,73.42
2023-02-15T19:10:48.703Z,73.25
2023-02-15T19:13:20.346Z,73.07
2023-02-15T19:15:52.145Z,72.90
2023-02-15T19:18:23.714Z,73.23
2023-02-15T19:20:55.566Z,73.37
2023-02-15T19:23:27.214Z,73.34
2023-02-15T19:25:59.121Z,73.58
2023-02-15T19:28:33.339Z,73.55
2023-02-15T19:31:05.353Z,73.66
2023-02-15T19:33:37.172Z,73.83
2023-02-15T19:36:15.018Z,73.72
2023-02-15T19:38:50.561Z,74.02
2023-02-15T19:41:27.434Z,73.97
2023-02-15T19:43:59.474Z,74.06
2023-02-15T19:46:31.450Z,73.77
2023-02-15T19:49:03.228Z,74.41
2023-02-15T19:51:34.966Z,74.20
2023-02-15T19:54:27.371Z,73.67
2023-02-15T19:57:02.222Z,73.79
2023-02-15T19:59:36.443Z,73.78
2023-02-15T20:02:12.903Z,73.68
2023-02-15T20:04:44.661Z,74.08
2023-02-15T20:07:24.204Z,74.26
2023-02-15T20:09:55.951Z,74.30
2023-02-15T20:12:29.559Z,74.36
2023-02-15T20:15:01.207Z,74.34
2023-02-15T20:17:32.893Z,74.08
2023-02-15T20:20:04.679Z,74.14
2023-02-15T20:22:36.389Z,73.85
2023-02-15T20:25:27.644Z,74.00
2023-02-15T20:27:59.714Z,74.08
2023-02-15T20:30:32.186Z,74.54
2023-02-15T20:33:04.050Z,74.27
2023-02-15T20:35:35.769Z,74.61
2023-02-15T20:38:10.887Z,74.81
2023-02-15T20:41:02.881Z,74.56
2023-02-15T20:43:34.984Z,74.45
2023-02-15T20:46:08.438Z,74.53
2023-02-15T20:48:40.447Z,74.60
2023-02-15T20:51:18.763Z,74.67
2023-02-15T20:53:53.483Z,74.70
2023-02-15T20:56:25.049Z,74.84
2023-02-15T20:58:59.530Z,75.16
2023-02-15T21:01:32.361Z,75.27
2023-02-15T21:04:04.161Z,75.42
2023-02-15T21:06:36.219Z,75.32
2023-02-15T21:09:11.234Z,75.38
2023-02-15T21:11:44.171Z,75.16
2023-02-15T21:14:17.734Z,75.25
2023-02-15T21:16:49.930Z,74.82
2023-02-15T21:19:22.633Z,75.01
2023-02-15T21:21:54.412Z,74.82
2023-02-15T21:24:27.847Z,74.79
2023-02-15T21:27:01.414Z,75.34
2023-02-15T21:29:33.462Z,75.26
2023-02-15T21:32:05.336Z,75.08
2023-02-15T21:34:38.242Z,74.72
2023-02-15T21:37:26.596Z,74.45
2023-02-15T21:39:58.286Z,74.67
2023-02-15T21:42:48.783Z,74.40
2023-02-15T21:45:38.901Z,74.41
2023-02-15T21:48:10.431Z,74.36
2023-02-15T21:51:11.746Z,74.13
2023-02-15T21:53:45.976Z,73.95
2023-02-15T21:56:18.785Z,74.09
2023-02-15T21:58:50.337Z,74.24
2023-02-15T22:01:26.090Z,74.31
2023-02-15T22:03:58.901Z,73.99
2023-02-15T22:06:30.687Z,73.94
2023-02-15T22:09:02.278Z,74.02
2023-02-15T22:11:33.974Z,74.02
2023-02-15T22:14:05.592Z,73.70
2023-02-15T22:16:37.221Z,73.68
2023-02-15T22:19:11.524Z,73.82
2023-02-15T22:21:43.129Z,73.40
2023-02-15T22:24:14.784Z,73.85
2023-02-15T22:26:46.582Z,73.73
2023-02-15T22:29:18.373Z,73.95
2023-02-15T22:31:50.099Z,74.01
2023-02-15T22:34:29.385Z,74.20
2023-02-15T22:37:01.495Z,73.91
2023-02-15T22:39:34.032Z,74.24
2023-02-15T22:42:06.808Z,74.38
2023-02-15T22:44:38.423Z,74.15
2023-02-15T22:47:15.541Z,74.10
2023-02-15T22:49:47.214Z,74.46
2023-02-15T22:52:19.176Z,74.58
2023-02-15T22:54:50.813Z,74.42
2023-02-15T22:57:30.188Z,74.86
2023-02-15T23:00:01.928Z,74.69
2023-02-15T23:02:33.883Z,74.38
2023-02-15T23:05:05.837Z,74.22
2023-02-15T23:07:37.557Z,74.00
2023-02-15T23:10:21.237Z,74.41
2023-02-15T23:13:13.024Z,73.80
2023-02-15T23:15:45.532Z,73.90
2023-02-15T23:18:33.852Z,74.88
2023-02-15T23:21:25.816Z,75.68
2023-02-15T23:24:01.349Z,75.36
2023-02-15T23:26:32.954Z,76.56
2023-02-15T23:29:06.193Z,76.49
2023-02-15T23:31:43.105Z,76.14
2023-02-15T23:34:35.054Z,76.70
2023-02-15T23:37:07.821Z,76.89
2023-02-15T23:39:58.071Z,77.02
2023-02-15T23:42:31.269Z,77.33
2023-02-15T23:45:03.049Z,77.27
2023-02-15T23:47:53.931Z,77.81
2023-02-15T23:50:36.508Z,77.13
2023-02-15T23:53:09.854Z,76.82
2023-02-15T23:55:43.445Z,77.37
2023-02-15T23:58:17.049Z,77.65
